createdAt,value
2018-01-08T00:02:08.163Z,93.50
2018-01-08T00:04:38.666Z,93.60
2018-01-08T00:07:07.391Z,93.70
2018-01-08T00:09:35.443Z,93.60
2018-01-08T00:12:12.721Z,93.80
2018-01-08T00:14:40.569Z,94.00
2018-01-08T00:17:15.112Z,93.50
2018-01-08T00:19:42.881Z,93.60
2018-01-08T00:22:11.718Z,93.60
2018-01-08T00:24:39.746Z,93.70
2018-01-08T00:27:14.225Z,93.90
2018-01-08T00:29:41.837Z,93.70
2018-01-08T00:32:12.861Z,93.60
2018-01-08T00:34:41.576Z,93.40
2018-01-08T00:37:09.117Z,93.70
2018-01-08T00:39:38.226Z,93.80
2018-01-08T00:42:07.530Z,93.70
2018-01-08T00:44:51.055Z,93.60
2018-01-08T00:47:20.475Z,93.70
2018-01-08T00:49:47.991Z,93.70
2018-01-08T00:52:15.532Z,94.00
2018-01-08T00:54:43.044Z,94.00
2018-01-08T00:57:10.563Z,94.00
2018-01-08T00:59:38.103Z,94.20
2018-01-08T01:02:05.621Z,94.50
2018-01-08T01:04:33.189Z,94.30
2018-01-08T01:07:00.736Z,94.60
2018-01-08T01:09:28.264Z,94.30
2018-01-08T01:11:55.824Z,94.30
2018-01-08T01:14:23.380Z,94.10
2018-01-08T01:16:50.895Z,94.00
2018-01-08T01:19:18.430Z,93.80
2018-01-08T01:21:45.968Z,93.80
2018-01-08T01:24:14.297Z,94.00
2018-01-08T01:26:41.824Z,94.00
2018-01-08T01:29:09.371Z,94.10
2018-01-08T01:31:36.917Z,93.90
2018-01-08T01:34:04.433Z,94.00
2018-01-08T01:36:31.981Z,94.00
2018-01-08T01:38:59.533Z,94.20
2018-01-08T01:41:27.075Z,94.30
2018-01-08T01:43:54.579Z,94.10
2018-01-08T01:46:22.116Z,94.30
2018-01-08T01:48:49.651Z,94.30
2018-01-08T01:51:17.177Z,94.20
2018-01-08T01:53:44.700Z,94.30
2018-01-08T01:56:12.245Z,94.10
2018-01-08T01:58:39.779Z,94.30
2018-01-08T02:01:08.084Z,94.00
2018-01-08T02:03:35.596Z,93.90
2018-01-08T02:06:03.125Z,94.00
2018-01-08T02:08:30.665Z,94.20
2018-01-08T02:10:58.176Z,94.20
2018-01-08T02:13:26.478Z,94.20
2018-01-08T02:15:54.014Z,94.00
2018-01-08T02:18:22.335Z,94.20
2018-01-08T02:20:49.862Z,94.20
2018-01-08T02:23:18.172Z,94.00
2018-01-08T02:25:45.707Z,94.00
2018-01-08T02:28:13.220Z,94.20
2018-01-08T02:30:40.777Z,94.40
2018-01-08T02:33:08.301Z,94.40
2018-01-08T02:35:35.834Z,94.50
2018-01-08T02:38:04.136Z,94.20
2018-01-08T02:40:31.652Z,94.20
2018-01-08T02:42:59.958Z,94.30
2018-01-08T02:45:27.492Z,94.10
2018-01-08T02:47:55.827Z,94.20
2018-01-08T02:50:23.370Z,94.20
2018-01-08T02:52:50.929Z,94.30
2018-01-08T02:55:18.468Z,94.40
2018-01-08T02:57:45.983Z,94.40
2018-01-08T03:00:13.558Z,94.10
2018-01-08T03:02:41.075Z,94.20
2018-01-08T03:05:08.595Z,94.30
2018-01-08T03:07:36.895Z,93.90
2018-01-08T03:10:04.411Z,93.90
2018-01-08T03:12:32.723Z,94.40
2018-01-08T03:15:00.263Z,94.20
2018-01-08T03:17:28.559Z,94.40
2018-01-08T03:19:56.091Z,94.40
2018-01-08T03:22:24.396Z,94.00
2018-01-08T03:24:51.915Z,94.00
2018-01-08T03:27:19.425Z,94.10
2018-01-08T03:29:46.985Z,94.30
2018-01-08T03:32:14.506Z,94.40
2018-01-08T03:34:42.044Z,94.20
2018-01-08T03:37:09.596Z,94.90
2018-01-08T03:39:37.108Z,94.50
2018-01-08T03:42:04.660Z,94.50
2018-01-08T03:44:32.168Z,94.50
2018-01-08T03:46:59.695Z,94.40
2018-01-08T03:49:27.209Z,94.60
2018-01-08T03:51:55.500Z,94.80
2018-01-08T03:54:23.815Z,94.80
2018-01-08T03:56:51.339Z,94.80
2018-01-08T03:59:18.880Z,94.90
2018-01-08T04:01:47.183Z,94.60
2018-01-08T04:04:14.685Z,94.60
2018-01-08T04:06:42.214Z,94.80
2018-01-08T04:09:09.729Z,94.70
2018-01-08T04:11:38.046Z,94.30
2018-01-08T04:14:05.556Z,94.60
2018-01-08T04:16:33.058Z,94.80
2018-01-08T04:19:00.606Z,94.70
2018-01-08T04:21:28.111Z,94.60
2018-01-08T04:23:55.651Z,94.70
2018-01-08T04:26:23.158Z,94.60
2018-01-08T04:28:51.427Z,94.80
2018-01-08T04:31:18.995Z,94.80
2018-01-08T04:33:47.284Z,95.10
2018-01-08T04:36:15.581Z,94.90
2018-01-08T04:38:43.128Z,94.90
2018-01-08T04:41:10.650Z,94.90
2018-01-08T04:43:38.176Z,94.90
2018-01-08T04:46:05.733Z,94.80
2018-01-08T04:48:33.252Z,95.00
2018-01-08T04:51:00.808Z,95.20
2018-01-08T04:53:29.121Z,95.00
2018-01-08T04:55:56.707Z,95.00
2018-01-08T04:58:24.246Z,95.00
2018-01-08T05:00:51.771Z,94.90
2018-01-08T05:03:20.160Z,94.80
2018-01-08T05:05:47.703Z,94.90
2018-01-08T05:08:15.997Z,94.80
2018-01-08T05:10:43.539Z,94.70
2018-01-08T05:13:11.075Z,94.80
2018-01-08T05:15:38.611Z,94.80
2018-01-08T05:18:06.150Z,94.80
2018-01-08T05:20:33.665Z,94.90
2018-01-08T05:23:01.979Z,94.90
2018-01-08T05:25:29.509Z,94.90
2018-01-08T05:27:57.786Z,95.00
2018-01-08T05:30:26.084Z,95.00
2018-01-08T05:32:53.631Z,95.00
2018-01-08T05:35:21.179Z,95.10
2018-01-08T05:37:48.709Z,95.30
2018-01-08T05:40:16.240Z,95.10
2018-01-08T05:42:43.789Z,95.30
2018-01-08T05:45:11.314Z,95.20
2018-01-08T05:47:39.625Z,95.20
2018-01-08T05:50:07.164Z,95.20
2018-01-08T05:52:34.672Z,95.20
2018-01-08T05:55:02.226Z,95.20
2018-01-08T05:57:29.880Z,94.90
2018-01-08T05:59:57.457Z,95.00
2018-01-08T06:02:24.978Z,95.10
2018-01-08T06:04:52.503Z,95.40
2018-01-08T06:07:20.817Z,94.80
2018-01-08T06:09:48.325Z,94.80
2018-01-08T06:12:15.832Z,94.70
2018-01-08T06:14:43.363Z,94.70
2018-01-08T06:17:10.892Z,94.50
2018-01-08T06:19:38.453Z,94.50
2018-01-08T06:22:05.987Z,94.60
2018-01-08T06:24:33.513Z,94.70
2018-01-08T06:27:01.026Z,94.60
2018-01-08T06:29:28.552Z,94.70
2018-01-08T06:31:56.127Z,94.80
2018-01-08T06:34:23.683Z,94.60
2018-01-08T06:36:51.193Z,94.50
2018-01-08T06:39:18.719Z,94.40
2018-01-08T06:41:46.248Z,94.60
2018-01-08T06:44:13.780Z,94.80
2018-01-08T06:46:42.884Z,94.60
2018-01-08T06:49:10.404Z,94.40
2018-01-08T06:51:37.996Z,94.50
2018-01-08T06:54:05.542Z,94.30
2018-01-08T06:56:33.274Z,94.20
2018-01-08T06:59:00.860Z,94.40
2018-01-08T07:01:28.417Z,94.40
2018-01-08T07:03:56.743Z,94.40
2018-01-08T07:06:24.444Z,94.40
2018-01-08T07:08:52.718Z,94.50
2018-01-08T07:11:21.000Z,94.30
2018-01-08T07:13:49.300Z,94.10
2018-01-08T07:16:16.834Z,94.10
2018-01-08T07:18:45.192Z,94.20
2018-01-08T07:21:13.851Z,94.20
2018-01-08T07:23:41.408Z,94.30
2018-01-08T07:26:08.948Z,94.30
2018-01-08T07:28:36.486Z,94.20
2018-01-08T07:31:04.044Z,94.30
2018-01-08T07:33:32.362Z,94.40
2018-01-08T07:35:59.897Z,94.40
2018-01-08T07:38:27.416Z,94.50
2018-01-08T07:40:55.019Z,94.30
2018-01-08T07:43:22.522Z,94.40
2018-01-08T07:45:50.075Z,94.30
2018-01-08T07:48:17.606Z,94.40
2018-01-08T07:50:45.156Z,94.20
2018-01-08T07:53:12.662Z,94.00
2018-01-08T07:55:40.172Z,94.00
2018-01-08T07:58:07.704Z,94.10
2018-01-08T08:00:35.239Z,94.00
2018-01-08T08:03:02.759Z,94.00
2018-01-08T08:05:30.291Z,94.00
2018-01-08T08:07:57.825Z,94.00
2018-01-08T08:10:25.380Z,93.90
2018-01-08T08:12:52.906Z,93.90
2018-01-08T08:15:20.453Z,93.90
2018-01-08T08:17:47.980Z,93.80
2018-01-08T08:20:15.537Z,94.00
2018-01-08T08:22:43.063Z,94.00
2018-01-08T08:25:10.601Z,94.10
2018-01-08T08:27:38.125Z,94.30
2018-01-08T08:30:05.671Z,94.00
2018-01-08T08:32:33.967Z,93.80
2018-01-08T08:35:01.536Z,93.80
2018-01-08T08:37:29.075Z,93.80
2018-01-08T08:39:57.417Z,93.80
2018-01-08T08:42:24.955Z,94.00
2018-01-08T08:44:52.545Z,94.10
2018-01-08T08:47:20.081Z,94.10
2018-01-08T08:49:47.577Z,93.70
2018-01-08T08:52:15.880Z,93.70
2018-01-08T08:54:43.402Z,93.70
2018-01-08T08:57:11.725Z,93.30
2018-01-08T08:59:39.227Z,93.30
2018-01-08T09:02:06.736Z,93.50
2018-01-08T09:04:34.282Z,93.50
2018-01-08T09:07:01.798Z,93.30
2018-01-08T09:09:29.321Z,93.30
2018-01-08T09:11:56.859Z,93.30
2018-01-08T09:14:25.415Z,93.30
2018-01-08T09:16:53.719Z,93.10
2018-01-08T09:19:21.252Z,93.10
2018-01-08T09:21:49.571Z,93.00
2018-01-08T09:24:17.105Z,92.90
2018-01-08T09:26:44.632Z,92.90
2018-01-08T09:29:12.157Z,92.90
2018-01-08T09:31:39.696Z,93.10
2018-01-08T09:34:07.231Z,93.20
2018-01-08T09:36:35.998Z,92.90
2018-01-08T09:39:03.530Z,92.80
2018-01-08T09:41:31.112Z,92.90
2018-01-08T09:43:58.634Z,92.60
2018-01-08T09:46:26.154Z,92.70
2018-01-08T09:48:53.692Z,92.90
2018-01-08T09:51:21.221Z,92.80
2018-01-08T09:53:48.798Z,92.70
2018-01-08T09:56:16.307Z,92.60
2018-01-08T09:58:43.817Z,92.80
2018-01-08T10:01:11.351Z,92.80
2018-01-08T10:03:50.713Z,92.80
2018-01-08T10:06:30.066Z,92.60
2018-01-08T10:09:09.493Z,92.30
2018-01-08T10:11:49.052Z,91.90
2018-01-08T10:14:29.228Z,91.70
2018-01-08T10:17:08.643Z,91.70
2018-01-08T10:22:34.693Z,91.40
2018-01-08T10:25:02.995Z,91.20
2018-01-08T10:27:30.539Z,91.20
2018-01-08T10:29:58.070Z,91.80
2018-01-08T10:32:25.600Z,92.00
2018-01-08T10:34:53.126Z,91.80
2018-01-08T10:37:20.637Z,91.50
2018-01-08T10:39:48.187Z,91.30
2018-01-08T10:42:21.261Z,91.30
2018-01-08T10:44:54.550Z,91.40
2018-01-08T10:47:27.796Z,91.40
2018-01-08T10:50:01.893Z,91.50
2018-01-08T10:52:29.481Z,91.40
2018-01-08T10:54:57.855Z,91.40
2018-01-08T10:57:26.163Z,91.40
2018-01-08T10:59:54.449Z,91.60
2018-01-08T11:02:27.651Z,91.60
2018-01-08T11:04:55.193Z,91.50
2018-01-08T11:07:22.700Z,91.70
2018-01-08T11:09:51.030Z,92.10
2018-01-08T11:12:18.560Z,92.10
2018-01-08T11:14:46.078Z,91.90
2018-01-08T11:17:13.659Z,91.70
2018-01-08T11:19:41.990Z,91.50
2018-01-08T11:22:09.550Z,91.50
2018-01-08T11:24:37.078Z,91.30
2018-01-08T11:27:04.603Z,91.60
2018-01-08T11:29:32.147Z,91.20
2018-01-08T11:31:59.667Z,91.10
2018-01-08T11:34:27.200Z,90.90
2018-01-08T11:36:54.706Z,90.80
2018-01-08T11:39:22.457Z,91.10
2018-01-08T11:41:50.179Z,91.30
2018-01-08T11:44:18.467Z,91.40
2018-01-08T11:46:45.979Z,91.40
2018-01-08T11:49:13.541Z,91.40
2018-01-08T11:51:41.057Z,91.60
2018-01-08T11:54:08.605Z,91.80
2018-01-08T11:56:36.148Z,91.50
2018-01-08T11:59:04.420Z,91.40
2018-01-08T12:01:33.092Z,91.30
2018-01-08T12:04:00.600Z,91.30
2018-01-08T12:06:28.104Z,91.20
2018-01-08T12:08:55.644Z,90.90
2018-01-08T12:11:23.164Z,91.00
2018-01-08T12:13:50.718Z,90.70
2018-01-08T12:16:18.229Z,90.80
2018-01-08T12:18:45.785Z,90.70
2018-01-08T12:21:13.319Z,90.60
2018-01-08T12:23:41.629Z,91.00
2018-01-08T12:26:09.224Z,91.00
2018-01-08T12:28:36.764Z,90.80
2018-01-08T12:31:05.060Z,91.00
2018-01-08T12:33:33.378Z,91.10
2018-01-08T12:36:00.900Z,91.10
2018-01-08T12:38:28.418Z,91.00
2018-01-08T12:40:55.944Z,90.70
2018-01-08T12:43:23.486Z,90.90
2018-01-08T12:45:51.048Z,90.90
2018-01-08T12:48:18.556Z,90.80
2018-01-08T12:50:46.076Z,90.60
2018-01-08T12:53:13.614Z,90.60
2018-01-08T12:55:41.127Z,90.50
2018-01-08T12:58:08.664Z,90.40
2018-01-08T13:00:36.227Z,90.60
2018-01-08T13:03:03.767Z,90.80
2018-01-08T13:05:31.307Z,91.10
2018-01-08T13:07:58.814Z,90.80
2018-01-08T13:10:26.341Z,90.80
2018-01-08T13:12:53.860Z,91.00
2018-01-08T13:15:21.409Z,90.90
2018-01-08T13:17:48.932Z,90.70
2018-01-08T13:20:16.488Z,90.90
2018-01-08T13:22:44.064Z,90.70
2018-01-08T13:25:11.595Z,90.70
2018-01-08T13:27:39.917Z,90.60
2018-01-08T13:30:07.498Z,90.60
2018-01-08T13:32:35.827Z,90.70
2018-01-08T13:35:03.348Z,90.70
2018-01-08T13:37:30.895Z,90.40
2018-01-08T13:39:59.188Z,90.60
2018-01-08T13:42:26.717Z,90.60
2018-01-08T13:44:55.018Z,90.60
2018-01-08T13:47:22.534Z,90.60
2018-01-08T13:49:50.079Z,90.50
2018-01-08T13:52:17.591Z,90.60
2018-01-08T13:54:45.105Z,90.70
2018-01-08T13:57:12.653Z,90.50
2018-01-08T13:59:40.233Z,90.90
2018-01-08T14:02:07.795Z,90.80
2018-01-08T14:04:35.311Z,90.70
2018-01-08T14:07:05.610Z,90.60
2018-01-08T14:09:33.177Z,90.60
2018-01-08T14:12:00.782Z,90.60
2018-01-08T14:14:28.343Z,90.80
2018-01-08T14:16:55.915Z,90.80
2018-01-08T14:19:23.440Z,91.00
2018-01-08T14:21:51.735Z,90.70
2018-01-08T14:24:19.278Z,90.70
2018-01-08T14:26:46.874Z,90.70
2018-01-08T14:29:14.401Z,90.60
2018-01-08T14:31:41.924Z,90.50
2018-01-08T14:34:09.481Z,90.80
2018-01-08T14:36:37.026Z,90.30
2018-01-08T14:39:04.537Z,90.40
2018-01-08T14:41:32.143Z,90.40
2018-01-08T14:43:59.672Z,90.40
2018-01-08T14:46:27.198Z,90.50
2018-01-08T14:48:54.735Z,90.60
2018-01-08T14:51:22.294Z,90.30
2018-01-08T14:53:49.826Z,90.10
2018-01-08T14:56:18.222Z,90.60
2018-01-08T14:58:45.770Z,90.50
2018-01-08T15:01:14.082Z,90.70
2018-01-08T15:03:41.611Z,90.70
2018-01-08T15:06:09.907Z,90.40
2018-01-08T15:08:37.458Z,90.40
2018-01-08T15:11:05.573Z,90.20
2018-01-08T15:13:33.151Z,90.40
2018-01-08T15:16:00.924Z,90.40
2018-01-08T15:18:28.483Z,90.40
2018-01-08T15:20:56.011Z,90.60
2018-01-08T15:23:23.558Z,90.70
2018-01-08T15:25:51.073Z,90.80
2018-01-08T15:28:19.368Z,90.70
2018-01-08T15:30:46.890Z,90.60
2018-01-08T15:33:14.401Z,90.50
2018-01-08T15:35:41.968Z,90.70
2018-01-08T15:38:09.498Z,90.80
2018-01-08T15:40:37.026Z,90.80
2018-01-08T15:43:04.558Z,91.10
2018-01-08T15:45:32.064Z,90.80
2018-01-08T15:48:01.092Z,90.70
2018-01-08T15:50:28.626Z,90.70
2018-01-08T15:52:56.165Z,90.70
2018-01-08T15:55:24.485Z,91.00
2018-01-08T15:57:52.003Z,91.00
2018-01-08T16:00:20.316Z,91.00
2018-01-08T16:02:47.890Z,90.80
2018-01-08T16:05:15.497Z,90.80
2018-01-08T16:07:43.928Z,90.80
2018-01-08T16:10:11.851Z,90.80
2018-01-08T16:12:39.781Z,90.70
2018-01-08T16:15:07.422Z,90.90
2018-01-08T16:17:34.948Z,90.90
2018-01-08T16:20:03.276Z,90.90
2018-01-08T16:22:30.786Z,90.90
2018-01-08T16:24:58.319Z,90.90
2018-01-08T16:27:25.877Z,90.90
2018-01-08T16:29:53.403Z,91.00
2018-01-08T16:32:20.928Z,90.90
2018-01-08T16:34:48.491Z,91.00
2018-01-08T16:37:16.045Z,91.10
2018-01-08T16:39:43.618Z,91.20
2018-01-08T16:42:11.147Z,91.30
2018-01-08T16:44:39.411Z,91.10
2018-01-08T16:47:06.936Z,91.00
2018-01-08T16:49:34.499Z,91.20
2018-01-08T16:52:02.023Z,91.00
2018-01-08T16:54:29.540Z,91.00
2018-01-08T16:56:57.105Z,91.30
2018-01-08T16:59:24.639Z,91.20
2018-01-08T17:01:52.196Z,91.00
2018-01-08T17:04:19.752Z,91.10
2018-01-08T17:06:47.265Z,91.10
2018-01-08T17:09:14.821Z,91.00
2018-01-08T17:11:43.099Z,91.10
2018-01-08T17:14:10.656Z,91.10
2018-01-08T17:16:38.931Z,91.10
2018-01-08T17:19:07.239Z,91.00
2018-01-08T17:21:34.834Z,90.90
2018-01-08T17:24:02.359Z,91.00
2018-01-08T17:26:29.885Z,90.90
2018-01-08T17:28:58.198Z,91.20
2018-01-08T17:31:25.695Z,91.10
2018-01-08T17:33:53.251Z,91.20
2018-01-08T17:36:20.801Z,91.10
2018-01-08T17:38:48.344Z,91.10
2018-01-08T17:41:15.872Z,91.00
2018-01-08T17:43:43.397Z,90.90
2018-01-08T17:46:10.946Z,91.00
2018-01-08T17:48:38.482Z,91.10
2018-01-08T17:51:06.011Z,91.00
2018-01-08T17:53:33.566Z,91.00
2018-01-08T17:56:01.107Z,91.10
2018-01-08T17:58:29.397Z,91.30
2018-01-08T18:00:56.955Z,91.30
2018-01-08T18:03:24.465Z,91.10
2018-01-08T18:05:52.108Z,91.20
2018-01-08T18:08:19.600Z,91.20
2018-01-08T18:10:47.124Z,91.30
2018-01-08T18:13:14.664Z,91.50
2018-01-08T18:15:42.188Z,91.10
2018-01-08T18:18:10.510Z,91.20
2018-01-08T18:20:38.018Z,91.20
2018-01-08T18:23:06.297Z,91.60
2018-01-08T18:25:34.637Z,91.50
2018-01-08T18:28:02.184Z,91.50
2018-01-08T18:30:29.735Z,91.20
2018-01-08T18:32:57.263Z,91.20
2018-01-08T18:35:24.787Z,91.10
2018-01-08T18:37:52.313Z,91.30
2018-01-08T18:40:19.866Z,91.20
2018-01-08T18:42:47.377Z,91.20
2018-01-08T18:45:15.015Z,91.40
2018-01-08T18:47:42.564Z,91.40
2018-01-08T18:50:10.178Z,91.20
2018-01-08T18:52:38.497Z,91.00
2018-01-08T18:55:06.015Z,91.30
2018-01-08T18:57:33.552Z,91.00
2018-01-08T19:00:01.094Z,91.60
2018-01-08T19:02:28.643Z,91.10
2018-01-08T19:04:56.212Z,90.90
2018-01-08T19:07:23.727Z,91.10
2018-01-08T19:09:51.636Z,91.10
2018-01-08T19:12:19.524Z,91.30
2018-01-08T19:14:47.088Z,91.40
2018-01-08T19:17:14.638Z,91.30
2018-01-08T19:19:42.255Z,91.30
2018-01-08T19:22:10.429Z,91.50
2018-01-08T19:24:38.076Z,91.50
2018-01-08T19:27:05.689Z,91.30
2018-01-08T19:29:33.244Z,91.50
2018-01-08T19:32:00.799Z,91.50
2018-01-08T19:34:28.425Z,91.50
2018-01-08T19:36:56.812Z,91.70
2018-01-08T19:39:24.379Z,91.50
2018-01-08T19:41:51.895Z,91.60
2018-01-08T19:44:20.212Z,91.40
2018-01-08T19:46:47.867Z,91.40
2018-01-08T19:49:15.396Z,91.60
2018-01-08T19:51:43.663Z,91.70
2018-01-08T19:54:11.979Z,91.70
2018-01-08T19:56:39.497Z,91.70
2018-01-08T19:59:07.166Z,91.70
2018-01-08T20:01:34.727Z,91.80
2018-01-08T20:04:02.304Z,91.80
2018-01-08T20:06:29.890Z,91.80
2018-01-08T20:08:57.536Z,91.70
2018-01-08T20:11:25.072Z,91.80
2018-01-08T20:13:52.605Z,91.70
2018-01-08T20:16:20.159Z,91.80
2018-01-08T20:18:47.683Z,91.40
2018-01-08T20:21:15.218Z,91.50
2018-01-08T20:23:42.897Z,91.50
2018-01-08T20:26:10.466Z,91.80
2018-01-08T20:28:38.020Z,91.90
2018-01-08T20:31:05.542Z,91.90
2018-01-08T20:33:33.166Z,91.70
2018-01-08T20:36:00.774Z,91.50
2018-01-08T20:38:28.331Z,91.40
2018-01-08T20:43:41.079Z,91.70
2018-01-08T20:46:08.653Z,91.90
2018-01-08T20:48:36.228Z,91.90
2018-01-08T20:51:03.813Z,91.80
2018-01-08T20:53:31.430Z,92.00
2018-01-08T20:55:58.972Z,92.10
2018-01-08T20:58:26.476Z,92.20
2018-01-08T21:00:54.023Z,92.00
2018-01-08T21:03:21.563Z,92.00
2018-01-08T21:05:49.202Z,91.90
2018-01-08T21:08:17.039Z,92.10
2018-01-08T21:10:44.572Z,92.00
2018-01-08T21:13:12.120Z,92.10
2018-01-08T21:15:40.208Z,92.30
2018-01-08T21:18:07.829Z,92.20
2018-01-08T21:20:36.137Z,92.20
2018-01-08T21:23:03.683Z,92.20
2018-01-08T21:25:31.260Z,92.20
2018-01-08T21:27:58.833Z,92.30
2018-01-08T21:30:26.356Z,92.50
2018-01-08T21:32:54.670Z,92.40
2018-01-08T21:35:22.251Z,92.40
2018-01-08T21:37:50.551Z,92.30
2018-01-08T21:40:18.086Z,92.30
2018-01-08T21:42:46.425Z,92.80
2018-01-08T21:45:13.990Z,92.80
2018-01-08T21:47:41.574Z,92.80
2018-01-08T21:50:09.901Z,92.60
2018-01-08T21:52:37.463Z,92.50
2018-01-08T21:55:04.980Z,92.40
2018-01-08T21:57:33.337Z,92.50
2018-01-08T22:00:00.930Z,92.50
2018-01-08T22:02:28.462Z,92.80
2018-01-08T22:04:55.991Z,92.50
2018-01-08T22:07:23.539Z,92.50
2018-01-08T22:09:51.129Z,92.50
2018-01-08T22:12:18.658Z,92.50
2018-01-08T22:14:47.622Z,92.70
2018-01-08T22:17:15.189Z,92.60
2018-01-08T22:19:42.772Z,92.70
2018-01-08T22:22:10.335Z,92.60
2018-01-08T22:24:37.900Z,92.60
2018-01-08T22:27:05.458Z,92.60
2018-01-08T22:29:32.982Z,92.70
2018-01-08T22:32:00.592Z,92.80
2018-01-08T22:34:28.183Z,93.00
2018-01-08T22:36:56.480Z,92.90
2018-01-08T22:39:24.072Z,92.90
2018-01-08T22:41:51.996Z,92.90
2018-01-08T22:44:19.593Z,92.70
2018-01-08T22:46:47.134Z,92.80
2018-01-08T22:49:14.680Z,93.10
2018-01-08T22:51:42.596Z,92.70
2018-01-08T22:54:10.154Z,92.70
2018-01-08T22:56:38.465Z,92.50
2018-01-08T22:59:06.784Z,92.70
2018-01-08T23:01:34.355Z,92.70
2018-01-08T23:04:01.914Z,92.70
2018-01-08T23:06:29.480Z,92.70
2018-01-08T23:08:57.000Z,92.80
2018-01-08T23:11:24.881Z,92.80
2018-01-08T23:13:52.399Z,92.90
2018-01-08T23:16:20.687Z,93.40
2018-01-08T23:18:48.990Z,93.30
2018-01-08T23:21:17.299Z,93.30
2018-01-08T23:23:44.839Z,93.30
2018-01-08T23:26:12.372Z,93.40
2018-01-08T23:28:39.927Z,93.40
2018-01-08T23:31:07.438Z,93.50
2018-01-08T23:33:34.966Z,93.70
2018-01-08T23:36:02.508Z,93.80
2018-01-08T23:38:30.018Z,93.70
2018-01-08T23:40:57.545Z,93.70
2018-01-08T23:43:25.055Z,93.70
2018-01-08T23:45:53.352Z,93.50
2018-01-08T23:48:20.872Z,93.40
2018-01-08T23:50:48.426Z,93.50
2018-01-08T23:53:15.952Z,93.70
2018-01-08T23:55:43.462Z,93.80
2018-01-08T23:58:11.002Z,93.70
